sensor_id;sensor_type;location;lat;lon;timestamp;pressure;altitude;pressure_sealevel;temperature;humidity
50774;BME280;36745;48.544;8.918;2023-02-14T00:01:58;99171.09;;;-1.83;93.89
50774;BME280;36745;48.544;8.918;2023-02-14T00:05:18;99171.75;;;-1.86;94.15
50774;BME280;36745;48.544;8.918;2023-02-14T00:08:39;99163.16;;;-1.88;94.29
50774;BME280;36745;48.544;8.918;2023-02-14T00:11:59;99159.34;;;-1.87;94.41
50774;BME280;36745;48.544;8.918;2023-02-14T00:15:19;99153.72;;;-1.99;93.95
50774;BME280;36745;48.544;8.918;2023-02-14T00:18:41;99151.66;;;-2.02;94.15
50774;BME280;36745;48.544;8.918;2023-02-14T00:22:19;99147.84;;;-2.01;94.04
50774;BME280;36745;48.544;8.918;2023-02-14T00:25:39;99151.03;;;-1.99;94.18
50774;BME280;36745;48.544;8.918;2023-02-14T00:28:59;99148.63;;;-2.09;94.39
50774;BME280;36745;48.544;8.918;2023-02-14T00:32:19;99148.97;;;-2.02;94.90
50774;BME280;36745;48.544;8.918;2023-02-14T00:35:39;99137.06;;;-2.01;94.97
50774;BME280;36745;48.544;8.918;2023-02-14T00:39:04;99133.25;;;-2.00;94.78
50774;BME280;36745;48.544;8.918;2023-02-14T00:42:25;99134.84;;;-1.91;94.91
50774;BME280;36745;48.544;8.918;2023-02-14T00:45:45;99136.31;;;-1.85;95.26
50774;BME280;36745;48.544;8.918;2023-02-14T00:49:05;99142.66;;;-1.81;95.15
50774;BME280;36745;48.544;8.918;2023-02-14T00:52:24;99137.56;;;-1.82;95.05
50774;BME280;36745;48.544;8.918;2023-02-14T00:55:45;99132.00;;;-1.77;95.52
50774;BME280;36745;48.544;8.918;2023-02-14T00:59:05;99130.44;;;-1.78;95.45
50774;BME280;36745;48.544;8.918;2023-02-14T01:02:25;99138.66;;;-1.83;96.14
50774;BME280;36745;48.544;8.918;2023-02-14T01:05:46;99140.13;;;-1.86;96.11
50774;BME280;36745;48.544;8.918;2023-02-14T01:09:06;99140.13;;;-1.86;95.95
50774;BME280;36745;48.544;8.918;2023-02-14T01:12:26;99142.81;;;-1.94;95.83
50774;BME280;36745;48.544;8.918;2023-02-14T01:15:48;99142.47;;;-2.01;96.34
50774;BME280;36745;48.544;8.918;2023-02-14T01:19:08;99144.66;;;-2.03;96.04
50774;BME280;36745;48.544;8.918;2023-02-14T01:22:28;99139.53;;;-2.14;95.51
50774;BME280;36745;48.544;8.918;2023-02-14T01:25:47;99143.84;;;-2.13;96.21
50774;BME280;36745;48.544;8.918;2023-02-14T01:29:07;99138.31;;;-2.07;96.08
50774;BME280;36745;48.544;8.918;2023-02-14T01:32:30;99132.75;;;-2.11;96.18
50774;BME280;36745;48.544;8.918;2023-02-14T01:35:50;99132.25;;;-2.13;96.32
50774;BME280;36745;48.544;8.918;2023-02-14T01:39:12;99132.91;;;-2.07;96.31
50774;BME280;36745;48.544;8.918;2023-02-14T01:42:32;99138.59;;;-2.18;95.93
50774;BME280;36745;48.544;8.918;2023-02-14T01:45:53;99141.59;;;-2.19;96.75
50774;BME280;36745;48.544;8.918;2023-02-14T01:49:18;99138.59;;;-2.18;96.80
50774;BME280;36745;48.544;8.918;2023-02-14T01:52:43;99136.69;;;-2.17;97.00
50774;BME280;36745;48.544;8.918;2023-02-14T01:56:09;99140.31;;;-2.22;96.75
50774;BME280;36745;48.544;8.918;2023-02-14T01:59:35;99124.88;;;-2.30;96.41
50774;BME280;36745;48.544;8.918;2023-02-14T02:02:57;99138.50;;;-2.35;96.58
50774;BME280;36745;48.544;8.918;2023-02-14T02:06:33;99139.88;;;-2.46;96.77
50774;BME280;36745;48.544;8.918;2023-02-14T02:09:58;99136.56;;;-2.43;96.85
50774;BME280;36745;48.544;8.918;2023-02-14T02:13:20;99141.31;;;-2.48;96.93
50774;BME280;36745;48.544;8.918;2023-02-14T02:17:02;99128.47;;;-2.43;97.72
50774;BME280;36745;48.544;8.918;2023-02-14T02:24:15;99131.41;;;-2.53;97.49
50774;BME280;36745;48.544;8.918;2023-02-14T02:28:07;99129.84;;;-2.54;97.82
50774;BME280;36745;48.544;8.918;2023-02-14T02:35:44;99138.19;;;-2.64;98.67
50774;BME280;36745;48.544;8.918;2023-02-14T02:46:55;99124.69;;;-2.64;97.37
50774;BME280;36745;48.544;8.918;2023-02-14T02:50:27;99135.16;;;-2.71;97.90
50774;BME280;36745;48.544;8.918;2023-02-14T02:54:32;99132.84;;;-2.86;98.21
50774;BME280;36745;48.544;8.918;2023-02-14T02:57:54;99133.97;;;-2.79;98.03
50774;BME280;36745;48.544;8.918;2023-02-14T03:01:25;99127.78;;;-2.79;98.42
50774;BME280;36745;48.544;8.918;2023-02-14T03:04:49;99124.41;;;-2.85;98.38
50774;BME280;36745;48.544;8.918;2023-02-14T03:08:13;99128.53;;;-2.87;98.77
50774;BME280;36745;48.544;8.918;2023-02-14T03:11:33;99122.06;;;-2.86;99.02
50774;BME280;36745;48.544;8.918;2023-02-14T03:15:35;99115.38;;;-2.80;98.20
50774;BME280;36745;48.544;8.918;2023-02-14T03:23:56;99118.31;;;-2.99;98.86
50774;BME280;36745;48.544;8.918;2023-02-14T03:27:01;99122.91;;;-3.00;99.02
50774;BME280;36745;48.544;8.918;2023-02-14T03:30:30;99124.63;;;-3.04;98.88
50774;BME280;36745;48.544;8.918;2023-02-14T03:34:11;99125.16;;;-3.15;98.54
50774;BME280;36745;48.544;8.918;2023-02-14T03:37:38;99120.06;;;-3.17;98.84
50774;BME280;36745;48.544;8.918;2023-02-14T03:41:02;99120.81;;;-3.25;99.24
50774;BME280;36745;48.544;8.918;2023-02-14T03:44:24;99125.84;;;-3.32;99.01
50774;BME280;36745;48.544;8.918;2023-02-14T03:47:46;99120.94;;;-3.30;99.76
50774;BME280;36745;48.544;8.918;2023-02-14T03:51:11;99126.47;;;-3.35;99.38
50774;BME280;36745;48.544;8.918;2023-02-14T03:54:32;99119.59;;;-3.41;99.41
50774;BME280;36745;48.544;8.918;2023-02-14T03:58:13;99116.28;;;-3.38;98.99
50774;BME280;36745;48.544;8.918;2023-02-14T04:01:45;99119.38;;;-3.45;99.66
50774;BME280;36745;48.544;8.918;2023-02-14T04:05:20;99121.28;;;-3.45;99.70
50774;BME280;36745;48.544;8.918;2023-02-14T04:08:41;99113.69;;;-3.43;99.86
50774;BME280;36745;48.544;8.918;2023-02-14T04:12:01;99111.28;;;-3.45;99.88
50774;BME280;36745;48.544;8.918;2023-02-14T04:15:21;99114.53;;;-3.34;99.88
50774;BME280;36745;48.544;8.918;2023-02-14T04:18:41;99108.06;;;-3.33;99.72
50774;BME280;36745;48.544;8.918;2023-02-14T04:22:20;99112.28;;;-3.41;99.61
50774;BME280;36745;48.544;8.918;2023-02-14T04:25:39;99110.50;;;-3.45;99.05
50774;BME280;36745;48.544;8.918;2023-02-14T04:29:01;99116.22;;;-3.47;99.15
50774;BME280;36745;48.544;8.918;2023-02-14T04:32:21;99108.72;;;-3.50;99.32
50774;BME280;36745;48.544;8.918;2023-02-14T04:35:41;99116.56;;;-3.62;98.75
50774;BME280;36745;48.544;8.918;2023-02-14T04:39:01;99117.31;;;-3.61;98.83
50774;BME280;36745;48.544;8.918;2023-02-14T04:42:21;99118.34;;;-3.57;99.67
50774;BME280;36745;48.544;8.918;2023-02-14T04:45:41;99108.16;;;-3.60;99.31
50774;BME280;36745;48.544;8.918;2023-02-14T04:49:01;99112.31;;;-3.54;99.63
50774;BME280;36745;48.544;8.918;2023-02-14T04:52:21;99114.31;;;-3.46;99.50
50774;BME280;36745;48.544;8.918;2023-02-14T04:55:41;99107.56;;;-3.57;99.30
50774;BME280;36745;48.544;8.918;2023-02-14T04:59:04;99105.16;;;-3.59;99.19
50774;BME280;36745;48.544;8.918;2023-02-14T05:02:24;99109.56;;;-3.63;99.04
50774;BME280;36745;48.544;8.918;2023-02-14T05:05:44;99117.94;;;-3.64;99.25
50774;BME280;36745;48.544;8.918;2023-02-14T05:09:04;99109.56;;;-3.63;99.61
50774;BME280;36745;48.544;8.918;2023-02-14T05:12:23;99106.19;;;-3.68;99.95
50774;BME280;36745;48.544;8.918;2023-02-14T05:15:44;99111.69;;;-3.73;99.34
50774;BME280;36745;48.544;8.918;2023-02-14T05:19:04;99101.59;;;-3.82;99.45
50774;BME280;36745;48.544;8.918;2023-02-14T05:22:24;99101.25;;;-3.89;99.98
50774;BME280;36745;48.544;8.918;2023-02-14T05:25:47;99102.13;;;-3.79;100.00
50774;BME280;36745;48.544;8.918;2023-02-14T05:29:07;99101.72;;;-3.73;100.00
50774;BME280;36745;48.544;8.918;2023-02-14T05:32:26;99106.41;;;-3.78;100.00
50774;BME280;36745;48.544;8.918;2023-02-14T05:35:46;99112.78;;;-3.88;99.63
50774;BME280;36745;48.544;8.918;2023-02-14T05:39:06;99112.59;;;-3.78;100.00
50774;BME280;36745;48.544;8.918;2023-02-14T05:42:26;99119.88;;;-3.78;99.94
50774;BME280;36745;48.544;8.918;2023-02-14T05:45:47;99124.75;;;-3.81;99.68
50774;BME280;36745;48.544;8.918;2023-02-14T05:49:07;99135.03;;;-3.83;99.33
50774;BME280;36745;48.544;8.918;2023-02-14T05:52:26;99131.75;;;-3.79;99.50
50774;BME280;36745;48.544;8.918;2023-02-14T05:55:46;99134.53;;;-3.71;99.77
50774;BME280;36745;48.544;8.918;2023-02-14T05:59:06;99125.91;;;-3.59;99.71
50774;BME280;36745;48.544;8.918;2023-02-14T06:02:26;99131.31;;;-3.59;99.62
50774;BME280;36745;48.544;8.918;2023-02-14T06:05:46;99135.50;;;-3.53;99.26
50774;BME280;36745;48.544;8.918;2023-02-14T06:09:06;99133.06;;;-3.41;98.97
50774;BME280;36745;48.544;8.918;2023-02-14T06:12:26;99134.03;;;-3.37;98.86
50774;BME280;36745;48.544;8.918;2023-02-14T06:15:46;99130.66;;;-3.43;98.28
50774;BME280;36745;48.544;8.918;2023-02-14T06:19:06;99128.63;;;-3.59;98.27
50774;BME280;36745;48.544;8.918;2023-02-14T06:22:25;99124.84;;;-3.72;97.63
50774;BME280;36745;48.544;8.918;2023-02-14T06:25:45;99138.97;;;-3.89;97.57
50774;BME280;36745;48.544;8.918;2023-02-14T06:29:05;99134.94;;;-3.77;98.65
50774;BME280;36745;48.544;8.918;2023-02-14T06:32:25;99133.03;;;-3.77;98.09
50774;BME280;36745;48.544;8.918;2023-02-14T06:35:45;99136.94;;;-3.83;98.64
50774;BME280;36745;48.544;8.918;2023-02-14T06:39:05;99139.53;;;-3.78;98.70
50774;BME280;36745;48.544;8.918;2023-02-14T06:42:24;99148.91;;;-3.75;98.59
50774;BME280;36745;48.544;8.918;2023-02-14T06:45:45;99146.31;;;-3.81;98.68
50774;BME280;36745;48.544;8.918;2023-02-14T06:49:05;99151.09;;;-3.77;98.75
50774;BME280;36745;48.544;8.918;2023-02-14T06:52:25;99152.09;;;-3.87;98.29
50774;BME280;36745;48.544;8.918;2023-02-14T06:55:45;99151.09;;;-3.77;98.08
50774;BME280;36745;48.544;8.918;2023-02-14T06:59:05;99147.31;;;-3.76;97.91
50774;BME280;36745;48.544;8.918;2023-02-14T07:02:25;99153.78;;;-3.77;98.09
50774;BME280;36745;48.544;8.918;2023-02-14T07:05:45;99149.88;;;-3.71;98.37
50774;BME280;36745;48.544;8.918;2023-02-14T07:09:05;99156.97;;;-3.62;98.68
50774;BME280;36745;48.544;8.918;2023-02-14T07:12:25;99150.28;;;-3.64;97.76
50774;BME280;36745;48.544;8.918;2023-02-14T07:15:46;99144.09;;;-3.65;98.41
50774;BME280;36745;48.544;8.918;2023-02-14T07:19:06;99144.09;;;-3.65;98.20
50774;BME280;36745;48.544;8.918;2023-02-14T07:22:28;99144.91;;;-3.64;98.62
50774;BME280;36745;48.544;8.918;2023-02-14T07:25:48;99138.81;;;-3.56;98.83
50774;BME280;36745;48.544;8.918;2023-02-14T07:29:08;99140.88;;;-3.53;98.98
50774;BME280;36745;48.544;8.918;2023-02-14T07:32:28;99132.25;;;-3.42;98.87
50774;BME280;36745;48.544;8.918;2023-02-14T07:35:48;99134.31;;;-3.25;98.77
50774;BME280;36745;48.544;8.918;2023-02-14T07:39:08;99129.88;;;-3.21;98.48
50774;BME280;36745;48.544;8.918;2023-02-14T07:42:30;99132.59;;;-3.21;98.36
50774;BME280;36745;48.544;8.918;2023-02-14T07:45:50;99124.00;;;-3.23;98.34
50774;BME280;36745;48.544;8.918;2023-02-14T07:49:10;99123.66;;;-3.08;98.63
50774;BME280;36745;48.544;8.918;2023-02-14T07:52:29;99116.72;;;-3.00;98.40
50774;BME280;36745;48.544;8.918;2023-02-14T07:55:50;99129.00;;;-2.85;98.14
50774;BME280;36745;48.544;8.918;2023-02-14T07:59:10;99117.84;;;-2.70;97.74
50774;BME280;36745;48.544;8.918;2023-02-14T08:02:30;99121.16;;;-2.73;98.08
50774;BME280;36745;48.544;8.918;2023-02-14T08:05:50;99123.47;;;-2.58;96.81
50774;BME280;36745;48.544;8.918;2023-02-14T08:09:16;99123.38;;;-2.75;97.84
50774;BME280;36745;48.544;8.918;2023-02-14T08:12:42;99123.19;;;-2.48;98.09
50774;BME280;36745;48.544;8.918;2023-02-14T08:16:17;99118.56;;;-2.56;98.54
50774;BME280;36745;48.544;8.918;2023-02-14T08:19:37;99124.47;;;-2.45;98.60
50774;BME280;36745;48.544;8.918;2023-02-14T08:22:57;99125.78;;;-2.43;99.18
50774;BME280;36745;48.544;8.918;2023-02-14T08:26:16;99111.38;;;-2.30;99.62
50774;BME280;36745;48.544;8.918;2023-02-14T08:29:36;99113.31;;;-2.13;100.00
50774;BME280;36745;48.544;8.918;2023-02-14T08:32:56;99118.59;;;-1.99;99.75
50774;BME280;36745;48.544;8.918;2023-02-14T08:36:16;99113.25;;;-1.82;100.00
50774;BME280;36745;48.544;8.918;2023-02-14T08:39:37;99120.44;;;-1.69;100.00
50774;BME280;36745;48.544;8.918;2023-02-14T08:42:57;99111.09;;;-1.46;99.61
50774;BME280;36745;48.544;8.918;2023-02-14T08:46:17;99110.75;;;-1.36;99.47
50774;BME280;36745;48.544;8.918;2023-02-14T08:49:37;99103.09;;;-1.34;100.00
50774;BME280;36745;48.544;8.918;2023-02-14T08:52:59;99099.28;;;-1.15;100.00
50774;BME280;36745;48.544;8.918;2023-02-14T08:56:19;99105.81;;;-0.99;100.00
50774;BME280;36745;48.544;8.918;2023-02-14T08:59:40;99101.78;;;-0.76;100.00
50774;BME280;36745;48.544;8.918;2023-02-14T09:03:00;99101.25;;;-0.69;100.00
50774;BME280;36745;48.544;8.918;2023-02-14T09:06:20;99112.28;;;-0.66;100.00
50774;BME280;36745;48.544;8.918;2023-02-14T09:09:40;99109.91;;;-0.29;100.00
50774;BME280;36745;48.544;8.918;2023-02-14T09:13:00;99103.03;;;-0.27;100.00
50774;BME280;36745;48.544;8.918;2023-02-14T09:16:20;99094.22;;;-0.15;100.00
50774;BME280;36745;48.544;8.918;2023-02-14T09:19:40;99094.53;;;0.13;100.00
50774;BME280;36745;48.544;8.918;2023-02-14T09:23:00;99094.16;;;0.23;100.00
50774;BME280;36745;48.544;8.918;2023-02-14T09:26:20;99091.28;;;0.49;100.00
50774;BME280;36745;48.544;8.918;2023-02-14T09:29:40;99087.97;;;0.64;100.00
50774;BME280;36745;48.544;8.918;2023-02-14T09:33:00;99089.81;;;0.72;100.00
50774;BME280;36745;48.544;8.918;2023-02-14T09:36:23;99086.28;;;0.92;100.00
50774;BME280;36745;48.544;8.918;2023-02-14T09:40:01;99071.88;;;1.12;100.00
50774;BME280;36745;48.544;8.918;2023-02-14T09:43:30;99069.44;;;1.32;100.00
50774;BME280;36745;48.544;8.918;2023-02-14T09:46:54;99074.91;;;1.56;100.00
50774;BME280;36745;48.544;8.918;2023-02-14T09:50:29;99058.38;;;1.73;100.00
50774;BME280;36745;48.544;8.918;2023-02-14T09:54:10;99062.03;;;1.77;100.00
50774;BME280;36745;48.544;8.918;2023-02-14T10:01:21;99059.84;;;1.95;100.00
50774;BME280;36745;48.544;8.918;2023-02-14T10:11:46;99045.81;;;2.45;98.28
50774;BME280;36745;48.544;8.918;2023-02-14T10:15:13;99046.25;;;2.59;99.40
50774;BME280;36745;48.544;8.918;2023-02-14T10:18:45;99035.66;;;2.70;98.98
50774;BME280;36745;48.544;8.918;2023-02-14T10:22:13;99034.06;;;2.97;99.10
50774;BME280;36745;48.544;8.918;2023-02-14T10:26:00;99037.16;;;3.11;97.91
50774;BME280;36745;48.544;8.918;2023-02-14T10:29:21;99037.69;;;3.16;98.02
50774;BME280;36745;48.544;8.918;2023-02-14T10:36:11;99031.84;;;3.61;97.92
50774;BME280;36745;48.544;8.918;2023-02-14T10:54:44;99013.59;;;4.16;95.30
50774;BME280;36745;48.544;8.918;2023-02-14T10:58:05;98999.16;;;4.31;94.77
50774;BME280;36745;48.544;8.918;2023-02-14T11:01:28;98984.47;;;4.39;93.93
50774;BME280;36745;48.544;8.918;2023-02-14T11:04:48;98985.94;;;4.52;93.65
50774;BME280;36745;48.544;8.918;2023-02-14T11:08:21;98979.78;;;4.78;94.52
50774;BME280;36745;48.544;8.918;2023-02-14T11:11:44;98977.56;;;4.84;94.11
50774;BME280;36745;48.544;8.918;2023-02-14T11:18:43;98975.16;;;5.24;93.65
50774;BME280;36745;48.544;8.918;2023-02-14T11:22:02;98965.09;;;5.28;91.81
50774;BME280;36745;48.544;8.918;2023-02-14T11:25:30;98956.38;;;5.45;92.16
50774;BME280;36745;48.544;8.918;2023-02-14T11:28:56;98953.91;;;5.63;92.08
50774;BME280;36745;48.544;8.918;2023-02-14T11:32:23;98949.03;;;5.76;90.77
50774;BME280;36745;48.544;8.918;2023-02-14T11:35:49;98943.25;;;5.81;89.40
50774;BME280;36745;48.544;8.918;2023-02-14T11:39:28;98939.69;;;6.03;90.49
50774;BME280;36745;48.544;8.918;2023-02-14T11:42:48;98934.56;;;6.02;90.11
50774;BME280;36745;48.544;8.918;2023-02-14T11:49:53;98921.94;;;8.90;93.83
50774;BME280;36745;48.544;8.918;2023-02-14T11:53:19;98919.88;;;10.35;91.44
50774;BME280;36745;48.544;8.918;2023-02-14T12:00:13;98918.00;;;12.62;86.97
50774;BME280;36745;48.544;8.918;2023-02-14T12:03:43;98909.22;;;12.67;81.48
50774;BME280;36745;48.544;8.918;2023-02-14T12:07:36;98901.19;;;12.76;78.80
50774;BME280;36745;48.544;8.918;2023-02-14T12:11:05;98902.44;;;12.98;76.21
50774;BME280;36745;48.544;8.918;2023-02-14T12:14:35;98894.91;;;13.76;74.28
50774;BME280;36745;48.544;8.918;2023-02-14T12:21:47;98878.22;;;14.58;69.14
50774;BME280;36745;48.544;8.918;2023-02-14T12:25:40;98870.28;;;14.77;67.77
50774;BME280;36745;48.544;8.918;2023-02-14T12:29:17;98871.91;;;15.26;66.70
50774;BME280;36745;48.544;8.918;2023-02-14T12:32:46;98860.44;;;15.08;62.79
50774;BME280;36745;48.544;8.918;2023-02-14T12:40:10;98869.03;;;15.78;61.33
50774;BME280;36745;48.544;8.918;2023-02-14T12:43:55;98854.97;;;15.98;59.42
50774;BME280;36745;48.544;8.918;2023-02-14T12:51:22;98843.78;;;16.56;58.71
50774;BME280;36745;48.544;8.918;2023-02-14T13:06:02;98816.50;;;16.51;52.75
50774;BME280;36745;48.544;8.918;2023-02-14T13:13:14;98812.03;;;16.41;51.16
50774;BME280;36745;48.544;8.918;2023-02-14T13:16:59;98808.47;;;16.40;49.87
50774;BME280;36745;48.544;8.918;2023-02-14T13:23:57;98792.44;;;16.57;48.51
50774;BME280;36745;48.544;8.918;2023-02-14T13:27:26;98785.09;;;16.50;48.60
50774;BME280;36745;48.544;8.918;2023-02-14T13:30:46;98790.09;;;16.43;47.74
50774;BME280;36745;48.544;8.918;2023-02-14T13:34:28;98792.75;;;16.33;47.98
50774;BME280;36745;48.544;8.918;2023-02-14T13:37:54;98779.97;;;16.49;47.61
50774;BME280;36745;48.544;8.918;2023-02-14T13:41:16;98780.59;;;16.27;47.71
50774;BME280;36745;48.544;8.918;2023-02-14T13:48:19;98777.59;;;15.51;47.66
50774;BME280;36745;48.544;8.918;2023-02-14T13:51:51;98773.13;;;15.09;47.62
50774;BME280;36745;48.544;8.918;2023-02-14T13:55:15;98764.19;;;14.69;48.19
50774;BME280;36745;48.544;8.918;2023-02-14T13:58:55;98764.06;;;14.40;48.60
50774;BME280;36745;48.544;8.918;2023-02-14T14:05:56;98756.00;;;13.90;49.50
50774;BME280;36745;48.544;8.918;2023-02-14T14:12:58;98753.69;;;13.49;50.02
50774;BME280;36745;48.544;8.918;2023-02-14T14:19:47;98756.59;;;13.19;50.70
50774;BME280;36745;48.544;8.918;2023-02-14T14:23:28;98756.81;;;13.04;51.03
50774;BME280;36745;48.544;8.918;2023-02-14T14:26:51;98753.44;;;12.93;50.95
50774;BME280;36745;48.544;8.918;2023-02-14T14:30:20;98744.94;;;12.81;51.25
50774;BME280;36745;48.544;8.918;2023-02-14T14:33:42;98750.25;;;12.72;51.05
50774;BME280;36745;48.544;8.918;2023-02-14T14:37:14;98742.59;;;12.56;51.01
50774;BME280;36745;48.544;8.918;2023-02-14T14:40:36;98739.38;;;12.34;51.20
50774;BME280;36745;48.544;8.918;2023-02-14T14:43:57;98744.69;;;12.22;51.70
50774;BME280;36745;48.544;8.918;2023-02-14T14:47:21;98740.94;;;12.08;51.58
50774;BME280;36745;48.544;8.918;2023-02-14T14:50:46;98733.56;;;11.98;51.77
50774;BME280;36745;48.544;8.918;2023-02-14T14:54:17;98746.69;;;11.91;51.63
50774;BME280;36745;48.544;8.918;2023-02-14T14:57:38;98745.28;;;11.72;51.46
50774;BME280;36745;48.544;8.918;2023-02-14T15:00:58;98743.94;;;11.53;51.69
50774;BME280;36745;48.544;8.918;2023-02-14T15:07:48;98741.84;;;11.30;51.79
50774;BME280;36745;48.544;8.918;2023-02-14T15:11:19;98741.94;;;11.20;51.97
50774;BME280;36745;48.544;8.918;2023-02-14T15:14:58;98735.34;;;11.10;51.98
50774;BME280;36745;48.544;8.918;2023-02-14T15:18:19;98734.97;;;11.08;51.99
50774;BME280;36745;48.544;8.918;2023-02-14T15:21:40;98741.66;;;11.07;51.96
50774;BME280;36745;48.544;8.918;2023-02-14T15:24:59;98736.59;;;11.02;52.04
50774;BME280;36745;48.544;8.918;2023-02-14T15:28:56;98740.97;;;10.96;52.26
50774;BME280;36745;48.544;8.918;2023-02-14T15:32:15;98747.06;;;10.77;52.19
50774;BME280;36745;48.544;8.918;2023-02-14T15:35:38;98744.78;;;10.65;52.42
50774;BME280;36745;48.544;8.918;2023-02-14T15:39:03;98750.38;;;10.58;52.83
50774;BME280;36745;48.544;8.918;2023-02-14T15:42:30;98747.25;;;10.56;53.16
50774;BME280;36745;48.544;8.918;2023-02-14T15:45:53;98751.25;;;10.44;53.75
50774;BME280;36745;48.544;8.918;2023-02-14T15:49:19;98742.63;;;10.38;54.13
50774;BME280;36745;48.544;8.918;2023-02-14T15:52:39;98749.31;;;10.37;53.98
50774;BME280;36745;48.544;8.918;2023-02-14T15:56:11;98742.66;;;10.31;54.27
50774;BME280;36745;48.544;8.918;2023-02-14T15:59:40;98749.75;;;10.32;54.28
50774;BME280;36745;48.544;8.918;2023-02-14T16:03:04;98746.66;;;10.23;54.66
50774;BME280;36745;48.544;8.918;2023-02-14T16:10:24;98735.34;;;10.00;55.12
50774;BME280;36745;48.544;8.918;2023-02-14T16:13:45;98737.38;;;9.92;55.32
50774;BME280;36745;48.544;8.918;2023-02-14T16:17:12;98744.47;;;9.83;55.48
50774;BME280;36745;48.544;8.918;2023-02-14T16:20:41;98738.25;;;9.68;55.22
50774;BME280;36745;48.544;8.918;2023-02-14T16:27:30;98743.13;;;9.18;56.42
50774;BME280;36745;48.544;8.918;2023-02-14T16:30:57;98740.00;;;9.02;56.94
50774;BME280;36745;48.544;8.918;2023-02-14T16:34:17;98744.00;;;8.79;57.02
50774;BME280;36745;48.544;8.918;2023-02-14T16:37:37;98742.00;;;8.41;57.66
50774;BME280;36745;48.544;8.918;2023-02-14T16:40:57;98746.31;;;8.35;57.95
50774;BME280;36745;48.544;8.918;2023-02-14T16:44:18;98751.69;;;7.99;58.02
50774;BME280;36745;48.544;8.918;2023-02-14T16:47:38;98755.56;;;7.84;58.61
50774;BME280;36745;48.544;8.918;2023-02-14T16:50:57;98757.06;;;7.61;59.03
50774;BME280;36745;48.544;8.918;2023-02-14T16:54:18;98766.44;;;7.56;59.35
50774;BME280;36745;48.544;8.918;2023-02-14T16:57:41;98774.16;;;7.33;59.05
50774;BME280;36745;48.544;8.918;2023-02-14T17:01:01;98769.22;;;6.94;60.00
50774;BME280;36745;48.544;8.918;2023-02-14T17:04:21;98772.94;;;6.72;60.01
50774;BME280;36745;48.544;8.918;2023-02-14T17:07:42;98778.94;;;6.41;60.74
50774;BME280;36745;48.544;8.918;2023-02-14T17:11:02;98781.47;;;6.19;61.11
50774;BME280;36745;48.544;8.918;2023-02-14T17:14:29;98782.75;;;5.96;61.32
50774;BME280;36745;48.544;8.918;2023-02-14T17:18:02;98779.84;;;5.81;62.16
50774;BME280;36745;48.544;8.918;2023-02-14T17:21:25;98778.97;;;5.74;62.43
50774;BME280;36745;48.544;8.918;2023-02-14T17:24:45;98787.84;;;5.64;62.75
50774;BME280;36745;48.544;8.918;2023-02-14T17:28:05;98788.06;;;5.52;62.87
50774;BME280;36745;48.544;8.918;2023-02-14T17:31:25;98795.19;;;5.30;63.20
50774;BME280;36745;48.544;8.918;2023-02-14T17:34:47;98802.84;;;5.17;63.71
50774;BME280;36745;48.544;8.918;2023-02-14T17:38:07;98808.38;;;4.98;64.05
50774;BME280;36745;48.544;8.918;2023-02-14T17:41:28;98803.50;;;4.84;64.40
50774;BME280;36745;48.544;8.918;2023-02-14T17:44:47;98803.19;;;4.67;64.94
50774;BME280;36745;48.544;8.918;2023-02-14T17:48:07;98805.25;;;4.50;64.79
50774;BME280;36745;48.544;8.918;2023-02-14T17:51:27;98805.03;;;4.36;65.53
50774;BME280;36745;48.544;8.918;2023-02-14T17:54:47;98801.81;;;4.31;66.19
50774;BME280;36745;48.544;8.918;2023-02-14T17:58:07;98793.97;;;4.29;66.25
50774;BME280;36745;48.544;8.918;2023-02-14T18:01:29;98792.97;;;4.18;66.40
50774;BME280;36745;48.544;8.918;2023-02-14T18:04:54;98792.34;;;4.05;66.56
50774;BME280;36745;48.544;8.918;2023-02-14T18:08:15;98792.09;;;3.91;67.27
50774;BME280;36745;48.544;8.918;2023-02-14T18:11:37;98789.22;;;3.84;67.47
50774;BME280;36745;48.544;8.918;2023-02-14T18:14:57;98788.28;;;3.76;67.77
50774;BME280;36745;48.544;8.918;2023-02-14T18:18:18;98791.16;;;3.64;68.21
50774;BME280;36745;48.544;8.918;2023-02-14T18:21:38;98794.00;;;3.52;68.48
50774;BME280;36745;48.544;8.918;2023-02-14T18:24:58;98785.72;;;3.45;69.21
50774;BME280;36745;48.544;8.918;2023-02-14T18:28:19;98779.66;;;3.36;68.76
50774;BME280;36745;48.544;8.918;2023-02-14T18:31:40;98781.06;;;3.30;69.84
50774;BME280;36745;48.544;8.918;2023-02-14T18:35:00;98774.75;;;3.26;69.78
50774;BME280;36745;48.544;8.918;2023-02-14T18:38:20;98776.81;;;3.13;70.60
50774;BME280;36745;48.544;8.918;2023-02-14T18:41:40;98768.06;;;3.04;70.27
50774;BME280;36745;48.544;8.918;2023-02-14T18:44:59;98764.47;;;3.00;70.23
50774;BME280;36745;48.544;8.918;2023-02-14T18:48:19;98767.81;;;2.93;71.08
50774;BME280;36745;48.544;8.918;2023-02-14T18:51:39;98772.66;;;2.84;71.42
50774;BME280;36745;48.544;8.918;2023-02-14T18:54:59;98775.66;;;2.79;71.59
50774;BME280;36745;48.544;8.918;2023-02-14T18:58:19;98770.50;;;2.74;71.79
50774;BME280;36745;48.544;8.918;2023-02-14T19:01:42;98773.75;;;2.64;72.15
50774;BME280;36745;48.544;8.918;2023-02-14T19:05:02;98767.84;;;2.62;72.59
50774;BME280;36745;48.544;8.918;2023-02-14T19:08:22;98772.44;;;2.58;72.71
50774;BME280;36745;48.544;8.918;2023-02-14T19:11:43;98765.34;;;2.53;72.73
50774;BME280;36745;48.544;8.918;2023-02-14T19:15:03;98766.53;;;2.40;72.81
50774;BME280;36745;48.544;8.918;2023-02-14T19:18:24;98770.31;;;2.36;73.40
50774;BME280;36745;48.544;8.918;2023-02-14T19:21:44;98756.59;;;2.32;73.48
50774;BME280;36745;48.544;8.918;2023-02-14T19:25:04;98758.84;;;2.27;73.65
50774;BME280;36745;48.544;8.918;2023-02-14T19:28:24;98749.34;;;2.21;74.26
50774;BME280;36745;48.544;8.918;2023-02-14T19:31:47;98763.56;;;2.14;74.36
50774;BME280;36745;48.544;8.918;2023-02-14T19:35:07;98756.19;;;2.15;74.67
50774;BME280;36745;48.544;8.918;2023-02-14T19:38:27;98753.97;;;2.04;74.80
50774;BME280;36745;48.544;8.918;2023-02-14T19:41:47;98753.88;;;2.01;75.41
50774;BME280;36745;48.544;8.918;2023-02-14T19:45:07;98761.09;;;2.09;75.45
50774;BME280;36745;48.544;8.918;2023-02-14T19:48:26;98757.63;;;1.96;75.52
50774;BME280;36745;48.544;8.918;2023-02-14T19:51:48;98758.78;;;1.95;75.28
50774;BME280;36745;48.544;8.918;2023-02-14T19:55:19;98762.41;;;1.99;75.63
50774;BME280;36745;48.544;8.918;2023-02-14T19:58:39;98758.44;;;1.97;75.57